createdAt,value
2022-09-07T00:01:03.267Z,1.30
2022-09-07T00:03:30.807Z,1.10
2022-09-07T00:05:58.049Z,1.10
2022-09-07T00:08:29.617Z,0.80
2022-09-07T00:11:05.411Z,1.07
2022-09-07T00:13:37.756Z,1.20
2022-09-07T00:16:12.844Z,1.20
2022-09-07T00:18:43.801Z,1.10
2022-09-07T00:21:16.759Z,1.03
2022-09-07T00:23:45.136Z,1.00
2022-09-07T00:26:20.081Z,1.00
2022-09-07T00:28:47.821Z,1.10
2022-09-07T00:31:23.079Z,1.07
2022-09-07T00:33:52.934Z,1.10
2022-09-07T00:36:22.460Z,1.07
2022-09-07T00:38:50.009Z,1.10
2022-09-07T00:41:19.046Z,1.20
2022-09-07T00:43:51.696Z,1.30
2022-09-07T00:46:33.954Z,1.10
2022-09-07T00:49:19.745Z,1.27
2022-09-07T00:52:02.474Z,1.13
2022-09-07T00:54:52.474Z,0.90
2022-09-07T00:57:21.133Z,1.50
2022-09-07T00:59:52.843Z,1.00
2022-09-07T01:02:20.323Z,1.13
2022-09-07T01:04:56.770Z,1.07
2022-09-07T01:07:23.917Z,1.40
2022-09-07T01:09:51.965Z,1.13
2022-09-07T01:12:18.938Z,1.47
2022-09-07T01:14:52.896Z,0.83
2022-09-07T01:17:47.903Z,1.10
2022-09-07T01:20:34.275Z,1.10
2022-09-07T01:23:43.947Z,1.07
2022-09-07T01:26:59.736Z,1.53
2022-09-07T01:30:06.117Z,1.20
2022-09-07T01:32:49.946Z,1.30
2022-09-07T01:35:39.421Z,1.07
2022-09-07T01:38:24.617Z,1.20
2022-09-07T01:41:32.169Z,1.30
2022-09-07T01:44:46.772Z,1.40
2022-09-07T01:47:53.742Z,1.23
2022-09-07T01:50:45.721Z,1.20
2022-09-07T01:53:19.827Z,1.10
2022-09-07T01:55:56.932Z,1.10
2022-09-07T01:58:46.823Z,1.10
2022-09-07T02:01:33.207Z,1.10
2022-09-07T02:04:30.231Z,1.53
2022-09-07T02:07:07.313Z,1.30
2022-09-07T02:10:03.159Z,0.93
2022-09-07T02:13:02.050Z,1.50
2022-09-07T02:16:06.786Z,1.40
2022-09-07T02:18:44.638Z,1.80
2022-09-07T02:21:17.658Z,1.67
2022-09-07T02:24:25.437Z,1.40
2022-09-07T02:26:54.417Z,1.43
2022-09-07T02:29:22.066Z,1.43
2022-09-07T02:31:50.027Z,1.73
2022-09-07T02:34:17.140Z,1.60
2022-09-07T02:36:50.951Z,1.30
2022-09-07T02:39:18.262Z,1.20
2022-09-07T02:41:46.665Z,1.20
2022-09-07T02:44:23.767Z,1.20
2022-09-07T02:47:36.803Z,1.50
2022-09-07T02:50:47.193Z,1.33
2022-09-07T02:54:04.578Z,1.43
2022-09-07T02:57:02.200Z,1.30
2022-09-07T03:00:05.584Z,1.17
2022-09-07T03:03:15.945Z,1.30
2022-09-07T03:06:29.022Z,1.07
2022-09-07T03:09:01.837Z,1.37
2022-09-07T03:11:29.857Z,1.30
2022-09-07T03:14:19.854Z,1.57
2022-09-07T03:16:50.367Z,1.37
2022-09-07T03:19:18.185Z,1.33
2022-09-07T03:21:45.649Z,1.10
2022-09-07T03:24:12.858Z,1.50
2022-09-07T03:26:46.112Z,1.20
2022-09-07T03:29:15.690Z,1.70
2022-09-07T03:31:42.807Z,1.47
2022-09-07T03:34:11.450Z,1.30
2022-09-07T03:36:38.895Z,1.70
2022-09-07T03:39:07.343Z,1.57
2022-09-07T03:41:34.910Z,1.20
2022-09-07T03:44:07.430Z,1.77
2022-09-07T03:46:35.141Z,1.47
2022-09-07T03:49:02.423Z,1.57
2022-09-07T03:51:29.531Z,1.67
2022-09-07T03:53:57.238Z,1.67
2022-09-07T03:56:26.012Z,1.50
2022-09-07T03:58:55.268Z,1.50
2022-09-07T04:01:26.059Z,1.60
2022-09-07T04:04:01.770Z,1.80
2022-09-07T04:06:30.275Z,1.73
2022-09-07T04:09:00.784Z,1.63
2022-09-07T04:11:27.782Z,1.63
2022-09-07T04:13:54.741Z,1.70
2022-09-07T04:16:26.512Z,1.70
2022-09-07T04:18:54.821Z,1.90
2022-09-07T04:21:24.051Z,1.70
2022-09-07T04:23:52.608Z,1.83
2022-09-07T04:26:32.795Z,1.37
2022-09-07T04:29:01.169Z,1.90
2022-09-07T04:31:28.299Z,1.73
2022-09-07T04:33:56.370Z,1.70
2022-09-07T04:36:26.789Z,1.60
2022-09-07T04:39:01.386Z,1.70
2022-09-07T04:41:31.706Z,2.10
2022-09-07T04:44:02.151Z,1.93
2022-09-07T04:46:34.464Z,2.30
2022-09-07T04:49:08.263Z,1.90
2022-09-07T04:51:36.587Z,2.13
2022-09-07T04:54:04.383Z,1.90
2022-09-07T04:56:32.939Z,2.10
2022-09-07T04:59:01.974Z,1.83
2022-09-07T05:01:29.887Z,1.80
2022-09-07T05:03:59.071Z,1.67
2022-09-07T05:06:26.137Z,2.00
2022-09-07T05:08:54.533Z,2.07
2022-09-07T05:11:28.647Z,2.33
2022-09-07T05:14:01.143Z,1.70
2022-09-07T05:16:29.800Z,2.00
2022-09-07T05:19:02.950Z,2.03
2022-09-07T05:21:35.110Z,1.73
2022-09-07T05:24:04.439Z,1.60
2022-09-07T05:26:35.972Z,1.70
2022-09-07T05:31:53.182Z,1.93
2022-09-07T05:34:35.794Z,2.20
2022-09-07T05:37:03.153Z,1.70
2022-09-07T05:39:30.869Z,2.73
2022-09-07T05:41:58.029Z,1.77
2022-09-07T05:47:07.916Z,2.30
2022-09-07T05:49:35.008Z,2.10
2022-09-07T05:52:02.512Z,2.00
2022-09-07T05:54:29.577Z,1.67
2022-09-07T05:56:56.720Z,1.90
2022-09-07T05:59:23.753Z,2.17
2022-09-07T06:01:50.995Z,2.13
2022-09-07T06:04:18.463Z,2.27
2022-09-07T06:06:59.278Z,2.20
2022-09-07T06:09:34.393Z,2.27
2022-09-07T06:12:05.284Z,2.13
2022-09-07T06:14:35.510Z,1.97
2022-09-07T06:17:02.640Z,2.23
2022-09-07T06:19:29.669Z,1.90
2022-09-07T06:21:56.619Z,2.07
2022-09-07T06:24:23.640Z,2.17
2022-09-07T06:26:50.657Z,2.30
2022-09-07T06:29:20.590Z,2.37
2022-09-07T06:34:34.691Z,2.10
2022-09-07T06:37:01.774Z,2.33
2022-09-07T06:39:28.833Z,2.37
2022-09-07T06:41:58.942Z,2.13
2022-09-07T06:44:26.100Z,2.27
2022-09-07T06:47:08.537Z,2.33
2022-09-07T06:49:35.573Z,2.17
2022-09-07T06:52:03.737Z,2.47
2022-09-07T06:57:17.730Z,2.60
2022-09-07T06:59:44.715Z,2.60
2022-09-07T07:02:15.850Z,2.63
2022-09-07T07:04:42.890Z,2.60
2022-09-07T07:07:14.365Z,2.23
2022-09-07T07:09:42.467Z,2.30
2022-09-07T07:12:10.831Z,2.53
2022-09-07T07:14:40.931Z,2.50
2022-09-07T07:17:13.123Z,2.40
2022-09-07T07:19:40.293Z,2.20
2022-09-07T07:22:23.850Z,2.50
2022-09-07T07:24:54.352Z,2.53
2022-09-07T07:27:22.020Z,2.63
2022-09-07T07:29:49.713Z,2.60
2022-09-07T07:32:19.311Z,2.80
2022-09-07T07:34:46.252Z,2.97
2022-09-07T07:37:14.411Z,2.77
2022-09-07T07:42:29.508Z,2.57
2022-09-07T07:47:43.523Z,2.40
2022-09-07T07:55:45.443Z,2.87
2022-09-07T07:58:12.982Z,2.67
2022-09-07T08:00:53.879Z,3.00
2022-09-07T08:03:23.533Z,2.78
2022-09-07T08:05:51.046Z,2.30
2022-09-07T08:08:19.186Z,2.80
2022-09-07T08:10:47.622Z,3.30
2022-09-07T08:13:16.763Z,3.33
2022-09-07T08:15:46.925Z,2.90
2022-09-07T08:18:16.893Z,2.70
2022-09-07T08:20:44.557Z,3.05
2022-09-07T08:23:11.812Z,3.42
2022-09-07T08:25:39.037Z,3.30
2022-09-07T08:28:06.115Z,3.13
2022-09-07T08:30:33.071Z,2.72
2022-09-07T08:33:00.078Z,3.47
2022-09-07T08:35:27.069Z,3.05
2022-09-07T08:37:54.269Z,2.75
2022-09-07T08:40:21.229Z,3.38
2022-09-07T08:43:03.202Z,3.20
2022-09-07T08:45:44.089Z,3.22
2022-09-07T08:48:16.706Z,3.40
2022-09-07T08:51:07.268Z,3.35
2022-09-07T08:53:43.375Z,3.38
2022-09-07T08:56:33.750Z,2.90
2022-09-07T08:59:23.973Z,3.05
2022-09-07T09:05:16.155Z,3.55
2022-09-07T09:07:49.851Z,3.92
2022-09-07T09:11:07.380Z,3.20
2022-09-07T09:14:24.204Z,3.75
2022-09-07T09:17:37.960Z,3.58
2022-09-07T09:20:33.185Z,3.67
2022-09-07T09:23:17.431Z,4.05
2022-09-07T09:25:56.273Z,3.72
2022-09-07T09:28:25.555Z,3.53
2022-09-07T09:30:54.844Z,3.42
2022-09-07T09:33:28.862Z,3.72
2022-09-07T09:36:00.326Z,3.97
2022-09-07T09:38:39.424Z,3.83
2022-09-07T09:41:13.797Z,3.80
2022-09-07T09:43:56.105Z,3.30
2022-09-07T09:46:37.492Z,3.88
2022-09-07T09:49:23.703Z,3.97
2022-09-07T09:54:49.044Z,4.00
2022-09-07T10:00:36.948Z,3.88
2022-09-07T10:06:19.458Z,3.58
2022-09-07T10:09:02.032Z,4.05
2022-09-07T10:12:08.532Z,3.40
2022-09-07T10:14:44.526Z,4.07
2022-09-07T10:17:35.540Z,4.10
2022-09-07T10:20:22.568Z,3.90
2022-09-07T10:22:52.253Z,4.40
2022-09-07T10:25:45.565Z,3.45
2022-09-07T10:28:18.416Z,3.72
2022-09-07T10:31:32.825Z,3.95
2022-09-07T10:34:34.004Z,3.45
2022-09-07T10:37:19.289Z,4.20
2022-09-07T10:40:05.967Z,4.40
2022-09-07T10:43:20.828Z,3.90
2022-09-07T10:49:25.446Z,4.20
2022-09-07T10:52:18.312Z,3.58
2022-09-07T10:55:07.839Z,4.07
2022-09-07T10:57:58.169Z,3.53
2022-09-07T11:00:27.410Z,3.85
2022-09-07T11:03:51.293Z,4.03
2022-09-07T11:06:43.118Z,3.70
2022-09-07T11:09:37.682Z,4.30
2022-09-07T11:12:10.865Z,4.18
2022-09-07T11:14:56.049Z,4.00
2022-09-07T11:17:29.054Z,4.45
2022-09-07T11:20:25.158Z,4.60
2022-09-07T11:23:44.769Z,3.95
2022-09-07T11:26:32.310Z,4.53
2022-09-07T11:29:33.648Z,4.05
2022-09-07T11:32:28.809Z,4.15
2022-09-07T11:35:16.830Z,3.92
2022-09-07T11:37:59.394Z,4.05
2022-09-07T11:40:39.430Z,3.80
2022-09-07T11:43:47.099Z,4.15
2022-09-07T11:46:32.662Z,3.90
2022-09-07T11:48:59.930Z,4.00
2022-09-07T11:52:22.191Z,4.25
2022-09-07T11:55:00.067Z,4.45
2022-09-07T11:58:27.990Z,4.18
2022-09-07T12:01:54.083Z,4.30
2022-09-07T12:05:15.866Z,4.30
2022-09-07T12:08:39.921Z,3.80
2022-09-07T12:11:50.045Z,4.60
2022-09-07T12:14:41.534Z,4.30
2022-09-07T12:17:59.046Z,4.72
2022-09-07T12:20:48.504Z,5.07
2022-09-07T12:23:15.249Z,4.65
2022-09-07T12:25:48.533Z,4.32
2022-09-07T12:28:24.127Z,5.15
2022-09-07T12:31:04.586Z,4.45
2022-09-07T12:33:37.415Z,4.43
2022-09-07T12:36:25.924Z,4.75
2022-09-07T12:39:30.611Z,4.32
2022-09-07T12:45:30.964Z,4.60
2022-09-07T12:48:04.548Z,4.68
2022-09-07T12:51:00.670Z,4.55
2022-09-07T12:54:27.613Z,4.65
2022-09-07T12:57:32.153Z,4.60
2022-09-07T13:00:50.994Z,4.38
2022-09-07T13:04:06.444Z,4.57
2022-09-07T13:07:33.686Z,4.45
2022-09-07T13:10:04.592Z,4.75
2022-09-07T13:12:56.815Z,5.10
2022-09-07T13:16:01.076Z,4.80
2022-09-07T13:18:28.252Z,4.93
2022-09-07T13:21:07.020Z,4.80
2022-09-07T13:23:39.524Z,4.60
2022-09-07T13:26:11.751Z,4.65
2022-09-07T13:28:56.321Z,4.15
2022-09-07T13:35:28.812Z,4.68
2022-09-07T13:38:03.502Z,5.10
2022-09-07T13:40:45.188Z,4.55
2022-09-07T13:43:24.567Z,4.90
2022-09-07T13:45:54.572Z,5.05
2022-09-07T13:48:43.977Z,4.75
2022-09-07T13:51:31.051Z,4.20
2022-09-07T13:54:28.375Z,4.53
2022-09-07T13:57:22.026Z,4.60
2022-09-07T13:59:51.668Z,4.68
2022-09-07T14:02:32.330Z,5.20
2022-09-07T14:05:00.928Z,4.53
2022-09-07T14:07:30.871Z,5.05
2022-09-07T14:10:21.970Z,4.80
2022-09-07T14:13:11.594Z,4.55
2022-09-07T14:15:47.131Z,4.32
2022-09-07T14:18:31.114Z,4.30
2022-09-07T14:20:58.786Z,4.68
2022-09-07T14:23:34.880Z,4.47
2022-09-07T14:26:23.261Z,4.50
2022-09-07T14:28:54.882Z,4.72
2022-09-07T14:31:25.231Z,4.50
2022-09-07T14:33:58.864Z,4.45
2022-09-07T14:36:46.448Z,4.80
2022-09-07T14:39:18.165Z,4.45
2022-09-07T14:41:45.855Z,4.70
2022-09-07T14:44:43.027Z,4.40
2022-09-07T14:47:33.974Z,4.43
2022-09-07T14:50:06.213Z,4.18
2022-09-07T14:53:33.247Z,4.65
2022-09-07T14:55:42.895Z,4.97
2022-09-07T14:58:15.830Z,4.47
2022-09-07T15:04:00.767Z,4.65
2022-09-07T15:09:38.580Z,4.70
2022-09-07T15:12:36.059Z,4.35
2022-09-07T15:15:37.184Z,4.40
2022-09-07T15:18:51.757Z,4.60
2022-09-07T15:21:19.403Z,4.60
2022-09-07T15:23:51.272Z,4.18
2022-09-07T15:29:10.872Z,4.68
2022-09-07T15:31:41.980Z,4.45
2022-09-07T15:34:15.824Z,5.13
2022-09-07T15:36:50.633Z,4.53
2022-09-07T15:39:26.306Z,4.63
2022-09-07T15:41:53.755Z,5.40
2022-09-07T15:44:26.533Z,4.15
2022-09-07T15:49:47.642Z,4.38
2022-09-07T15:52:17.750Z,4.07
2022-09-07T15:54:44.995Z,4.50
2022-09-07T15:59:59.000Z,4.32
2022-09-07T16:05:13.662Z,4.20
2022-09-07T16:10:31.645Z,4.38
2022-09-07T16:13:01.766Z,4.43
2022-09-07T16:15:31.489Z,4.40
2022-09-07T16:17:58.638Z,3.95
2022-09-07T16:20:31.970Z,3.72
2022-09-07T16:23:15.910Z,3.90
2022-09-07T16:25:57.518Z,3.60
2022-09-07T16:28:25.586Z,3.90
2022-09-07T16:30:52.556Z,3.70
2022-09-07T16:33:19.659Z,4.00
2022-09-07T16:35:59.506Z,3.92
2022-09-07T16:38:44.459Z,3.88
2022-09-07T16:41:29.069Z,3.50
2022-09-07T16:43:57.188Z,3.75
2022-09-07T16:46:30.995Z,3.50
2022-09-07T16:48:58.072Z,3.65
2022-09-07T16:51:25.442Z,3.67
2022-09-07T16:53:56.438Z,4.35
2022-09-07T16:56:27.271Z,3.80
2022-09-07T16:59:02.537Z,3.65
2022-09-07T17:01:37.609Z,3.50
2022-09-07T17:04:10.295Z,4.40
2022-09-07T17:06:39.841Z,4.18
2022-09-07T17:09:07.441Z,3.97
2022-09-07T17:11:36.502Z,4.30
2022-09-07T17:14:06.473Z,3.83
2022-09-07T17:16:38.646Z,3.90
2022-09-07T17:21:55.459Z,3.78
2022-09-07T17:24:24.352Z,3.85
2022-09-07T17:26:51.332Z,3.88
2022-09-07T17:29:18.345Z,3.80
2022-09-07T17:34:32.531Z,3.90
2022-09-07T17:37:00.743Z,3.63
2022-09-07T17:39:29.368Z,4.00
2022-09-07T17:41:56.669Z,3.35
2022-09-07T17:44:23.778Z,3.80
2022-09-07T17:46:51.190Z,3.40
2022-09-07T17:49:18.732Z,3.30
2022-09-07T17:51:46.468Z,3.17
2022-09-07T17:54:17.312Z,3.40
2022-09-07T17:56:45.497Z,3.22
2022-09-07T18:02:00.898Z,3.53
2022-09-07T18:04:28.737Z,2.88
2022-09-07T18:06:55.769Z,3.50
2022-09-07T18:09:22.745Z,3.38
2022-09-07T18:11:50.696Z,3.10
2022-09-07T18:14:19.247Z,2.97
2022-09-07T18:16:49.824Z,3.50
2022-09-07T18:19:18.645Z,3.30
2022-09-07T18:21:47.630Z,3.53
2022-09-07T18:24:23.993Z,3.28
2022-09-07T18:26:53.248Z,3.72
2022-09-07T18:29:34.054Z,3.20
2022-09-07T18:32:08.299Z,2.97
2022-09-07T18:34:38.595Z,3.38
2022-09-07T18:37:06.750Z,3.20
2022-09-07T18:39:35.374Z,3.72
2022-09-07T18:42:02.632Z,3.78
2022-09-07T18:47:23.326Z,3.22
2022-09-07T18:49:55.099Z,4.10
2022-09-07T18:55:09.906Z,3.38
2022-09-07T18:57:37.188Z,3.33
2022-09-07T19:00:08.047Z,4.18
2022-09-07T19:02:35.735Z,4.35
2022-09-07T19:07:50.409Z,3.83
2022-09-07T19:10:17.711Z,4.05
2022-09-07T19:12:46.042Z,4.30
2022-09-07T19:15:13.980Z,4.05
2022-09-07T19:17:40.926Z,3.85
2022-09-07T19:20:08.906Z,3.63
2022-09-07T19:22:35.820Z,3.80
2022-09-07T19:25:02.775Z,3.70
2022-09-07T19:27:32.749Z,4.10
2022-09-07T19:29:59.827Z,4.10
2022-09-07T19:32:26.767Z,4.07
2022-09-07T19:34:54.635Z,3.65
2022-09-07T19:37:27.250Z,3.30
2022-09-07T19:39:58.803Z,3.30
2022-09-07T19:42:27.318Z,3.75
2022-09-07T19:44:57.183Z,3.53
2022-09-07T19:47:24.306Z,3.80
2022-09-07T19:49:52.226Z,3.30
2022-09-07T19:52:19.265Z,3.40
2022-09-07T19:54:46.226Z,3.40
2022-09-07T19:57:13.164Z,3.30
2022-09-07T19:59:40.103Z,3.10
2022-09-07T20:02:08.727Z,4.05
2022-09-07T20:04:35.817Z,3.35
2022-09-07T20:07:03.304Z,3.38
2022-09-07T20:09:30.622Z,3.53
2022-09-07T20:11:57.649Z,3.80
2022-09-07T20:14:24.618Z,3.00
2022-09-07T20:16:51.567Z,3.40
2022-09-07T20:19:20.834Z,3.30
2022-09-07T20:21:48.891Z,3.58
2022-09-07T20:24:21.998Z,3.30
2022-09-07T20:26:49.386Z,3.33
2022-09-07T20:29:28.109Z,2.90
2022-09-07T20:31:59.188Z,2.88
2022-09-07T20:34:27.990Z,2.90
2022-09-07T20:36:55.536Z,3.03
2022-09-07T20:39:22.864Z,3.00
2022-09-07T20:41:49.962Z,3.20
2022-09-07T20:44:17.294Z,3.10
2022-09-07T20:46:44.363Z,3.40
2022-09-07T20:49:11.465Z,2.90
2022-09-07T20:51:38.776Z,3.40
2022-09-07T20:54:06.967Z,3.78
2022-09-07T20:56:34.568Z,3.15
2022-09-07T20:59:03.906Z,3.08
2022-09-07T21:01:35.349Z,2.72
2022-09-07T21:04:03.980Z,3.47
2022-09-07T21:06:32.743Z,3.20
2022-09-07T21:09:00.576Z,2.88
2022-09-07T21:11:35.102Z,3.08
2022-09-07T21:14:13.266Z,2.53
2022-09-07T21:16:40.740Z,3.10
2022-09-07T21:19:11.000Z,3.10
2022-09-07T21:21:42.036Z,2.40
2022-09-07T21:24:25.754Z,3.47
2022-09-07T21:26:52.732Z,2.92
2022-09-07T21:29:26.929Z,2.58
2022-09-07T21:31:56.476Z,2.63
2022-09-07T21:34:23.774Z,3.50
2022-09-07T21:36:51.344Z,2.80
2022-09-07T21:39:19.149Z,2.92
2022-09-07T21:41:46.357Z,2.58
2022-09-07T21:44:16.197Z,2.90
2022-09-07T21:46:46.550Z,2.72
2022-09-07T21:49:16.323Z,3.08
2022-09-07T21:51:45.719Z,2.70
2022-09-07T21:54:12.669Z,2.70
2022-09-07T21:56:46.522Z,2.90
2022-09-07T21:59:13.965Z,2.58
2022-09-07T22:01:41.049Z,2.90
2022-09-07T22:04:08.622Z,2.95
2022-09-07T22:06:37.746Z,2.83
2022-09-07T22:09:05.266Z,3.00
2022-09-07T22:11:32.744Z,2.97
2022-09-07T22:14:03.920Z,3.00
2022-09-07T22:16:33.925Z,3.08
2022-09-07T22:19:01.389Z,2.92
2022-09-07T22:21:30.407Z,3.10
2022-09-07T22:24:04.809Z,3.08
2022-09-07T22:26:39.775Z,2.70
2022-09-07T22:29:10.393Z,2.50
2022-09-07T22:31:39.883Z,2.50
2022-09-07T22:34:09.112Z,3.00
2022-09-07T22:36:41.617Z,2.88
2022-09-07T22:39:18.807Z,2.80
2022-09-07T22:41:47.424Z,2.90
2022-09-07T22:44:18.463Z,2.83
2022-09-07T22:46:47.335Z,2.65
2022-09-07T22:49:16.871Z,2.50
2022-09-07T22:51:44.918Z,2.55
2022-09-07T22:54:12.021Z,2.50
2022-09-07T22:56:39.780Z,2.35
2022-09-07T22:59:09.423Z,2.30
2022-09-07T23:01:37.116Z,2.22
2022-09-07T23:04:05.480Z,2.50
2022-09-07T23:06:38.193Z,2.53
2022-09-07T23:09:13.155Z,2.30
2022-09-07T23:11:41.255Z,2.40
2022-09-07T23:14:19.062Z,2.40
2022-09-07T23:16:46.699Z,2.67
2022-09-07T23:19:16.458Z,2.55
2022-09-07T23:21:44.383Z,2.70
2022-09-07T23:24:18.581Z,2.37
2022-09-07T23:26:46.865Z,2.07
2022-09-07T23:29:15.595Z,2.10
2022-09-07T23:31:43.018Z,2.38
2022-09-07T23:34:10.090Z,2.60
2022-09-07T23:36:37.417Z,2.47
2022-09-07T23:39:04.788Z,2.00
2022-09-07T23:41:31.764Z,2.60
2022-09-07T23:43:59.245Z,1.90
2022-09-07T23:46:26.368Z,2.17
2022-09-07T23:48:53.386Z,2.15
2022-09-07T23:51:24.202Z,2.10
2022-09-07T23:53:52.719Z,2.40
2022-09-07T23:56:21.888Z,2.10
2022-09-07T23:58:48.831Z,1.92
